createdAt,value
2017-12-22T00:02:03.275Z,94.8
2017-12-22T00:07:03.905Z,94.9
2017-12-22T00:12:03.306Z,94.8
2017-12-22T00:17:03.347Z,94.7
2017-12-22T00:22:03.735Z,94.7
2017-12-22T00:27:03.727Z,94.7
2017-12-22T00:32:03.876Z,94.8
2017-12-22T00:37:03.110Z,94.8
2017-12-22T00:42:03.246Z,95.4
2017-12-22T00:47:03.322Z,95.1
2017-12-22T00:52:03.073Z,95.1
2017-12-22T00:57:03.128Z,95.1
2017-12-22T01:02:03.270Z,95.0
2017-12-22T01:07:03.250Z,95.2
2017-12-22T01:12:03.407Z,95.1
2017-12-22T01:17:03.454Z,94.8
2017-12-22T01:22:03.815Z,95.2
2017-12-22T01:27:03.881Z,95.3
2017-12-22T01:32:03.943Z,95.5
2017-12-22T01:37:03.824Z,95.4
2017-12-22T01:42:03.926Z,95.3
2017-12-22T01:47:04.079Z,95.3
2017-12-22T01:52:03.069Z,95.3
2017-12-22T01:57:03.207Z,95.5
2017-12-22T02:02:03.443Z,94.7
2017-12-22T02:07:03.442Z,94.7
2017-12-22T02:12:03.581Z,95.2
2017-12-22T02:17:03.875Z,95.1
2017-12-22T02:22:03.598Z,95.3
2017-12-22T02:27:03.701Z,95.2
2017-12-22T02:32:03.772Z,95.3
2017-12-22T02:37:03.180Z,95.1
2017-12-22T02:42:03.331Z,95.1
2017-12-22T02:47:03.346Z,95.1
2017-12-22T02:52:03.642Z,95.1
2017-12-22T02:57:03.623Z,95.1
2017-12-22T03:02:03.834Z,95.7
2017-12-22T03:07:03.298Z,95.5
2017-12-22T03:12:03.591Z,95.4
2017-12-22T03:17:03.694Z,95.4
2017-12-22T03:22:03.692Z,95.2
2017-12-22T03:27:03.700Z,94.9
2017-12-22T03:32:03.774Z,94.9
2017-12-22T03:37:03.675Z,95.1
2017-12-22T03:42:03.794Z,95.4
2017-12-22T03:47:03.885Z,95.2
2017-12-22T03:52:03.070Z,95.0
2017-12-22T03:57:03.236Z,94.8
2017-12-22T04:02:03.345Z,94.9
2017-12-22T04:07:03.496Z,95.0
2017-12-22T04:12:03.741Z,95.0
2017-12-22T04:17:03.948Z,95.2
2017-12-22T04:22:04.014Z,95.0
2017-12-22T04:27:03.089Z,95.0
2017-12-22T04:32:03.327Z,94.8
2017-12-22T04:37:03.499Z,95.1
2017-12-22T04:42:03.599Z,95.1
2017-12-22T04:47:03.661Z,95.6
2017-12-22T04:52:03.778Z,95.5
2017-12-22T04:57:03.828Z,95.4
2017-12-22T05:02:03.969Z,95.2
2017-12-22T05:07:03.253Z,95.1
2017-12-22T05:12:03.605Z,95.4
2017-12-22T05:17:03.691Z,95.4
2017-12-22T05:22:03.789Z,95.3
2017-12-22T05:27:03.892Z,95.5
2017-12-22T05:32:03.963Z,95.2
2017-12-22T05:37:03.139Z,95.4
2017-12-22T05:42:03.184Z,95.4
2017-12-22T05:47:03.295Z,95.2
2017-12-22T05:52:03.484Z,95.0
2017-12-22T05:57:03.417Z,95.4
2017-12-22T06:02:03.535Z,95.4
2017-12-22T06:07:03.569Z,95.4
2017-12-22T06:12:03.887Z,95.4
2017-12-22T06:17:04.182Z,95.1
2017-12-22T06:22:03.991Z,94.9
2017-12-22T06:27:03.059Z,95.0
2017-12-22T06:32:03.238Z,95.0
2017-12-22T06:37:03.453Z,95.1
2017-12-22T06:42:03.433Z,95.0
2017-12-22T06:47:10.716Z,94.8
2017-12-22T06:52:03.842Z,94.8
2017-12-22T06:57:03.192Z,95.0
2017-12-22T07:02:29.252Z,95.0
2017-12-22T07:07:03.697Z,94.9
2017-12-22T07:12:03.140Z,95.0
2017-12-22T07:17:28.676Z,94.9
2017-12-22T07:22:03.939Z,94.8
2017-12-22T07:27:03.285Z,94.8
2017-12-22T07:32:25.288Z,94.8
2017-12-22T07:37:03.804Z,95.0
2017-12-22T07:42:03.018Z,94.9
2017-12-22T07:47:24.921Z,95.0
2017-12-22T07:52:03.437Z,95.2
2017-12-22T07:57:03.637Z,95.0
2017-12-22T08:02:25.139Z,94.8
2017-12-22T08:07:03.181Z,95.0
2017-12-22T08:12:03.482Z,95.0
2017-12-22T08:17:22.327Z,94.9
2017-12-22T08:22:03.893Z,94.9
2017-12-22T08:27:03.080Z,94.9
2017-12-22T08:32:21.813Z,94.5
2017-12-22T08:37:03.473Z,94.8
2017-12-22T08:42:03.595Z,94.8
2017-12-22T08:47:25.102Z,94.3
2017-12-22T08:52:02.947Z,94.3
2017-12-22T08:57:03.194Z,95.0
2017-12-22T09:02:25.078Z,94.9
2017-12-22T09:07:03.866Z,95.2
2017-12-22T09:12:03.207Z,95.0
2017-12-22T09:17:24.867Z,95.0
2017-12-22T09:22:03.686Z,94.3
2017-12-22T09:27:03.904Z,94.3
2017-12-22T09:32:25.326Z,94.3
2017-12-22T09:37:03.396Z,94.4
2017-12-22T09:42:03.556Z,94.8
2017-12-22T09:47:22.328Z,94.8
2017-12-22T09:52:03.106Z,95.0
2017-12-22T09:57:03.354Z,94.8
2017-12-22T10:02:25.137Z,94.4
2017-12-22T10:07:03.888Z,94.4
2017-12-22T10:12:03.241Z,94.0
2017-12-22T10:17:21.998Z,94.6
2017-12-22T10:22:03.757Z,94.6
2017-12-22T10:27:03.886Z,95.1
2017-12-22T10:32:24.621Z,95.0
2017-12-22T10:37:03.296Z,94.8
2017-12-22T10:42:03.452Z,94.8
2017-12-22T10:47:27.210Z,94.4
2017-12-22T10:52:03.893Z,94.6
2017-12-22T10:57:03.034Z,94.8
2017-12-22T11:02:24.236Z,95.1
2017-12-22T11:07:03.640Z,94.9
2017-12-22T11:12:03.047Z,94.9
2017-12-22T11:17:24.649Z,94.8
2017-12-22T11:22:03.648Z,94.9
2017-12-22T11:27:03.832Z,95.2
2017-12-22T11:32:25.448Z,95.1
2017-12-22T11:37:03.136Z,95.6
2017-12-22T11:42:03.306Z,94.7
2017-12-22T11:47:24.212Z,95.7
2017-12-22T11:52:03.885Z,95.6
2017-12-22T11:57:03.926Z,95.7
2017-12-22T12:02:22.801Z,95.4
2017-12-22T12:07:03.546Z,95.4
2017-12-22T12:12:03.776Z,95.5
2017-12-22T12:17:24.351Z,95.5
2017-12-22T12:22:03.431Z,95.9
2017-12-22T12:27:03.551Z,95.9
2017-12-22T12:32:25.012Z,96.0
2017-12-22T12:37:03.873Z,96.1
2017-12-22T12:42:02.975Z,96.4
2017-12-22T12:47:25.910Z,96.2
2017-12-22T12:52:03.338Z,96.2
2017-12-22T12:57:03.586Z,96.1
2017-12-22T13:02:24.466Z,96.0
2017-12-22T13:07:03.259Z,95.9
2017-12-22T13:12:03.555Z,95.8
2017-12-22T13:17:25.211Z,96.1
2017-12-22T13:22:03.024Z,97.0
2017-12-22T13:27:03.128Z,96.6
2017-12-22T13:32:24.639Z,97.3
2017-12-22T13:37:03.665Z,97.0
2017-12-22T13:42:03.756Z,97.7
2017-12-22T13:47:25.317Z,97.4
2017-12-22T13:52:02.979Z,97.4
2017-12-22T13:57:03.174Z,97.5
2017-12-22T14:02:23.953Z,97.4
2017-12-22T14:07:03.239Z,97.4
2017-12-22T14:12:03.382Z,97.3
2017-12-22T14:17:22.290Z,97.2
2017-12-22T14:22:03.872Z,97.1
2017-12-22T14:27:04.082Z,97.0
2017-12-22T14:32:23.954Z,97.1
2017-12-22T14:37:03.271Z,97.1
2017-12-22T14:42:03.458Z,97.3
2017-12-22T14:47:26.019Z,97.3
2017-12-22T14:52:03.040Z,96.9
2017-12-22T14:57:03.325Z,97.1
2017-12-22T15:02:26.897Z,97.2
2017-12-22T15:07:03.387Z,97.2
2017-12-22T15:12:03.779Z,97.2
2017-12-22T15:17:23.851Z,97.1
2017-12-22T15:22:03.686Z,97.1
2017-12-22T15:27:03.298Z,97.5
2017-12-22T15:32:24.424Z,97.6
2017-12-22T15:37:03.833Z,97.8
2017-12-22T15:42:03.864Z,97.8
2017-12-22T15:47:23.636Z,97.8
2017-12-22T15:52:03.971Z,97.7
2017-12-22T15:57:03.258Z,98.0
2017-12-22T16:02:12.422Z,98.4
2017-12-22T16:07:03.732Z,98.2
2017-12-22T16:12:03.918Z,98.1
2017-12-22T16:17:04.419Z,98.0
2017-12-22T16:22:03.292Z,98.0
2017-12-22T16:27:03.475Z,98.0
2017-12-22T16:32:03.587Z,97.4
2017-12-22T16:37:03.644Z,98.0
2017-12-22T16:42:03.720Z,97.9
2017-12-22T16:47:03.835Z,97.8
2017-12-22T16:52:02.986Z,97.8
2017-12-22T16:57:03.263Z,97.8
2017-12-22T17:02:03.417Z,97.9
2017-12-22T17:07:03.564Z,97.8
2017-12-22T17:12:03.897Z,97.7
2017-12-22T17:17:04.015Z,97.6
2017-12-22T17:22:03.340Z,97.6
2017-12-22T17:27:03.464Z,97.4
2017-12-22T17:32:03.561Z,97.4
2017-12-22T17:37:03.696Z,97.3
2017-12-22T17:42:03.821Z,97.3
2017-12-22T17:47:03.933Z,97.2
2017-12-22T17:52:03.077Z,97.2
2017-12-22T17:57:03.277Z,97.3
2017-12-22T18:02:03.452Z,97.4
2017-12-22T18:07:03.668Z,97.5
2017-12-22T18:12:03.850Z,97.2
2017-12-22T18:17:04.192Z,97.2
2017-12-22T18:22:03.276Z,97.2
2017-12-22T18:27:03.442Z,96.9
2017-12-22T18:32:03.467Z,96.8
2017-12-22T18:37:03.649Z,96.7
2017-12-22T18:42:03.640Z,97.0
2017-12-22T18:47:03.774Z,97.0
2017-12-22T18:52:03.930Z,97.3
2017-12-22T18:57:03.948Z,97.2
2017-12-22T19:02:03.497Z,97.0
2017-12-22T19:07:03.561Z,97.0
2017-12-22T19:12:03.628Z,97.3
2017-12-22T19:17:03.725Z,96.9
2017-12-22T19:22:03.836Z,96.9
2017-12-22T19:27:03.988Z,97.2
2017-12-22T19:32:04.031Z,97.2
2017-12-22T19:37:03.189Z,97.2
2017-12-22T19:42:03.355Z,97.5
2017-12-22T19:47:03.495Z,97.3
2017-12-22T19:52:03.583Z,97.2
2017-12-22T19:57:03.651Z,96.8
2017-12-22T20:02:03.733Z,97.0
2017-12-22T20:07:04.025Z,97.0
2017-12-22T20:12:03.221Z,97.0
2017-12-22T20:17:03.499Z,97.0
2017-12-22T20:22:03.634Z,96.9
2017-12-22T20:27:03.661Z,96.9
2017-12-22T20:32:03.766Z,96.8
2017-12-22T20:37:03.846Z,96.8
2017-12-22T20:42:03.913Z,96.7
2017-12-22T20:47:03.117Z,97.1
2017-12-22T20:52:03.322Z,97.1
2017-12-22T20:57:03.465Z,97.0
2017-12-22T21:02:03.535Z,97.1
2017-12-22T21:07:03.759Z,97.0
2017-12-22T21:12:04.044Z,97.1
2017-12-22T21:17:04.130Z,97.1
2017-12-22T21:22:03.343Z,96.6
2017-12-22T21:27:03.552Z,96.8
2017-12-22T21:32:03.544Z,97.0
2017-12-22T21:37:03.688Z,96.8
2017-12-22T21:42:03.732Z,96.7
2017-12-22T21:47:03.927Z,96.8
2017-12-22T21:52:03.054Z,96.9
2017-12-22T21:57:03.210Z,96.8
2017-12-22T22:02:03.398Z,96.8
2017-12-22T22:07:03.562Z,96.9
2017-12-22T22:12:03.734Z,96.4
2017-12-22T22:17:03.828Z,96.4
2017-12-22T22:22:03.951Z,96.4
2017-12-22T22:27:03.991Z,96.4
2017-12-22T22:32:03.174Z,96.2
2017-12-22T22:37:03.442Z,96.2
2017-12-22T22:42:03.574Z,96.3
2017-12-22T22:47:03.666Z,96.3
2017-12-22T22:52:03.763Z,96.6
2017-12-22T22:57:03.789Z,96.4
2017-12-22T23:02:03.106Z,96.5
2017-12-22T23:07:03.996Z,96.3
2017-12-22T23:12:03.262Z,96.9
2017-12-22T23:22:03.497Z,97.5
2017-12-22T23:27:03.315Z,97.1
2017-12-22T23:32:03.420Z,96.1
2017-12-22T23:37:03.589Z,96.4
2017-12-22T23:42:03.702Z,96.6
2017-12-22T23:47:03.712Z,96.5
2017-12-22T23:52:03.835Z,96.5
2017-12-22T23:57:03.920Z,96.7
